Flight Track Log - Related Links

Times and Time Zones

All times are in EDT time to prevent confusion due to time zone crossing. See the XOJ552 flight status page for this flight to view local times or setup timezone preferences in your user account.

Time Position Orientation Groundspeed Altitude Reporting Facility
EDT Latitude Longitude Course Direction KTS MPH feet Rate Location/Type
Fri 08:53:39 AM 47.5092 -122.2861 145° Southeast 175 201 1,200  Level Seattle Center
Fri 08:54:34 AM 47.4697 -122.2453 145° Southeast 218 251 3,900 3,031 Climbing Seattle Center
Fri 08:55:16 AM 47.4264 -122.2139 154° Southeast 250 288 6,100 3,529 Climbing Seattle Center
Fri 08:56:16 AM 47.3889 -122.2908 234° Southwest 262 302 9,900 3,400 Climbing Seattle Center
Fri 08:57:16 AM 47.4342 -122.4025 301° West 316 364 12,900 3,150 Climbing Seattle Center
Fri 08:58:16 AM 47.4819 -122.5153 302° West 324 373 16,200 2,926 Climbing Seattle Center
Fri 08:59:17 AM 47.5286 -122.6231 303° West 341 392 18,800 2,231 Climbing Seattle Center
Fri 09:00:17 AM 47.6006 -122.7378 313° West 379 436 20,700 2,250 Climbing Seattle Center
Fri 09:01:17 AM 47.6756 -122.8589 313° West 394 453 23,300 2,628 Climbing Seattle Center
Fri 09:02:18 AM 47.7511 -122.9800 313° West 401 461 26,000 2,479 Climbing Seattle Center
Fri 09:03:18 AM 47.8253 -123.1031 312° West 402 463 28,300 2,250 Climbing Seattle Center
Fri 09:04:18 AM 47.9003 -123.2269 312° West 406 467 30,500 1,983 Climbing Seattle Center
Fri 09:05:19 AM 47.9758 -123.3497 313° West 406 467 32,300 1,587 Climbing Seattle Center
Fri 09:06:19 AM 48.0644 -123.4983 312° West 419 482 33,700 1,339 Climbing Seattle Center
Fri 09:07:20 AM 48.1444 -123.6336 312° West 434 499 35,000 1,388 Climbing Seattle Center
Fri 09:08:20 AM 48.2250 -123.7694 312° West 437 503 36,500 1,121 Climbing Seattle Center
Fri 09:10:22 AM 48.3667 -124.0500 307° West 440 506 38,400 890 Climbing Vancouver Center
Fri 09:11:22 AM 48.4500 -124.2000 310° West 450 518 39,200 600 Climbing Vancouver Center
Fri 09:12:22 AM 48.5333 -124.3333 313° West 460 529 39,600 450 Climbing Vancouver Center
Fri 09:13:22 AM 48.6167 -124.4833 310° West 460 529 40,100 600 Climbing Vancouver Center
Fri 09:14:22 AM 48.7167 -124.6333 315° West 470 541 40,800 600 Climbing Vancouver Center
Fri 09:15:22 AM 48.8000 -124.7833 310° West 470 541 41,300 500 Climbing Vancouver Center
Fri 09:16:22 AM 48.8833 -124.9333 310° West 470 541 41,800 500 Climbing Vancouver Center
Fri 09:17:22 AM 48.9667 -125.0667 314° West 470 541 42,300 550 Climbing Vancouver Center
Fri 09:18:22 AM 49.0500 -125.2333 307° West 460 529 42,900 350 Climbing Vancouver Center
Fri 09:19:22 AM 49.1333 -125.3833 310° West 450 518 43,000 50 Climbing Vancouver Center
Fri 09:20:22 AM 49.2167 -125.5333 310° West 460 529 43,000  Level Vancouver Center
Fri 09:21:22 AM 49.2833 -125.6667 308° West 470 541 43,000  Level Vancouver Center
Fri 09:22:22 AM 49.3833 -125.8333 313° West 470 541 43,000  Level Vancouver Center
Fri 09:23:22 AM 49.4667 -125.9833 311° West 470 541 43,000  Level Vancouver Center
Fri 09:24:22 AM 49.5500 -126.1333 311° West 470 541 43,000  Level Vancouver Center
Fri 09:25:22 AM 49.6333 -126.3000 308° West 470 541 43,000  Level Vancouver Center
Fri 09:26:22 AM 49.7167 -126.4667 308° West 470 541 43,000  Level Vancouver Center
Fri 09:27:22 AM 49.7833 -126.6167 305° West 470 541 43,000  Level Vancouver Center
Fri 09:28:22 AM 49.8833 -126.7833 313° West 470 541 43,000  Level Vancouver Center
Fri 09:29:22 AM 49.9667 -126.9167 314° West 480 552 43,000  Level Vancouver Center
Fri 09:30:22 AM 50.0500 -127.0833 308° West 480 552 43,000  Level Vancouver Center
Fri 09:31:22 AM 50.1333 -127.2333 311° West 470 541 43,000  Level Vancouver Center
Fri 09:32:22 AM 50.2167 -127.4000 308° West 470 541 43,000  Level Vancouver Center
Fri 09:33:22 AM 50.3000 -127.5667 308° West 470 541 43,000  Level Vancouver Center
Fri 09:34:22 AM 50.3833 -127.7333 308° West 470 541 43,000  Level Vancouver Center
Fri 09:35:22 AM 50.4500 -127.8833 305° West 470 541 43,000  Level Vancouver Center
Fri 09:36:22 AM 50.5500 -128.0500 313° West 480 552 43,000  Level Vancouver Center
Fri 09:37:22 AM 50.6167 -128.2167 302° West 470 541 43,000  Level Vancouver Center
Fri 09:38:22 AM 50.7000 -128.3833 308° West 470 541 43,000  Level Vancouver Center
Fri 09:39:22 AM 50.7833 -128.5333 311° West 460 529 43,000  Level Vancouver Center
Fri 09:40:22 AM 50.8500 -128.7000 302° West 460 529 43,000  Level Vancouver Center
Fri 09:41:22 AM 50.9333 -128.8667 308° West 460 529 43,000  Level Vancouver Center
Fri 09:42:22 AM 51.0333 -129.0333 314° West 460 529 43,000  Level Vancouver Center
Fri 09:43:22 AM 51.0833 -129.1667 301° West 460 529 43,000  Level Vancouver Center
Fri 09:44:22 AM 51.1667 -129.3333 309° West 460 529 43,000  Level Vancouver Center
Fri 09:45:22 AM 51.2500 -129.5167 306° West 460 529 43,000  Level Vancouver Center
Fri 09:46:22 AM 51.3333 -129.6833 309° West 460 529 43,000  Level Vancouver Center
Fri 09:47:22 AM 51.4000 -129.8500 303° West 460 529 43,000  Level Vancouver Center
Fri 09:48:22 AM 51.4833 -130.0000 312° West 460 529 43,000  Level Vancouver Center
Fri 09:49:22 AM 51.5500 -130.1667 303° West 460 529 43,000  Level Vancouver Center
Fri 09:50:22 AM 51.6333 -130.3333 309° West 460 529 43,000  Level Vancouver Center
Fri 09:51:22 AM 51.7167 -130.5167 306° West 460 529 43,000  Level Vancouver Center
Fri 09:52:22 AM 51.8000 -130.6667 312° West 460 529 43,000  Level Vancouver Center
Fri 09:53:22 AM 51.8667 -130.8333 303° West 460 529 43,000  Level Vancouver Center
Fri 09:54:22 AM 51.9500 -131.0167 306° West 460 529 43,000  Level Vancouver Center
Fri 09:55:22 AM 52.0167 -131.1833 303° West 460 529 43,000  Level Vancouver Center
Fri 09:56:22 AM 52.0833 -131.3333 306° West 460 529 43,000  Level Vancouver Center
Fri 09:57:22 AM 52.1667 -131.5167 307° West 460 529 43,000  Level Vancouver Center
Fri 09:58:22 AM 52.2333 -131.6833 303° West 470 541 43,000  Level Vancouver Center
Fri 09:59:22 AM 52.3000 -131.8667 301° West 470 541 43,000  Level Vancouver Center
Fri 10:00:22 AM 52.4000 -132.0500 312° West 470 541 43,000  Level Vancouver Center
Fri 10:01:22 AM 52.4667 -132.2000 306° West 460 529 43,000  Level Vancouver Center
Fri 10:02:22 AM 52.5333 -132.3667 303° West 460 529 43,000  Level Vancouver Center
Fri 10:03:22 AM 52.6167 -132.5500 307° West 460 529 43,000  Level Vancouver Center
Fri 10:04:22 AM 52.6833 -132.7333 301° West 460 529 43,000  Level Vancouver Center
Fri 10:05:22 AM 52.7500 -132.9167 301° West 460 529 43,000  Level Vancouver Center
Fri 10:06:22 AM 52.8167 -133.0667 306° West 460 529 43,000  Level Vancouver Center
Fri 10:07:22 AM 52.9000 -133.2500 307° West 470 541 43,000  Level Vancouver Center
Fri 10:08:22 AM 52.9833 -133.4333 307° West 460 529 43,000  Level Vancouver Center
Fri 10:09:22 AM 53.0500 -133.6167 301° West 470 541 43,000  Level Vancouver Center
Fri 10:10:22 AM 53.1167 -133.8000 301° West 460 529 43,000  Level Vancouver Center
Fri 10:11:22 AM 53.1833 -133.9667 304° West 470 541 43,000  Level Vancouver Center
Fri 10:12:22 AM 53.2500 -134.1500 301° West 460 529 43,000  Level Vancouver Center
Fri 10:13:22 AM 53.3167 -134.3333 301° West 460 529 43,000  Level Vancouver Center
Fri 10:14:22 AM 53.4000 -134.4833 313° West 460 529 43,000  Level Vancouver Center
Fri 10:15:22 AM 53.4667 -134.6667 301° West 460 529 43,000  Level Vancouver Center
Fri 10:16:22 AM 53.5333 -134.8667 299° West 460 529 43,000  Level Vancouver Center
Fri 10:17:22 AM 53.6167 -135.0500 308° West 460 529 43,000  Level Vancouver Center
Fri 10:18:22 AM 53.6833 -135.2167 304° West 460 529 43,000  Level Vancouver Center
Fri 10:19:22 AM 53.7500 -135.4000 302° West 460 529 43,000  Level Vancouver Center
Fri 10:20:22 AM 53.8167 -135.5833 302° West 460 529 43,000  Level Vancouver Center
Fri 10:21:22 AM 53.8833 -135.7833 300° West 460 529 43,000  Level Vancouver Center
Fri 10:22:24 AM 53.9500 -135.9000 314° West 460 529 43,000  Level Anchorage Center
Fri 10:23:22 AM 54.0167 -136.1333 296° West 460 529 43,000  Level Vancouver Center
Fri 10:24:22 AM 54.0833 -136.3333 300° West 460 529 43,000  Level Vancouver Center
Fri 10:25:22 AM 54.1167 -136.5167 287° West 460 529 43,000  Level Vancouver Center
Fri 10:26:22 AM 54.1833 -136.7000 302° West 460 529 43,000  Level Vancouver Center
Fri 10:27:22 AM 54.2500 -136.8667 304° West 450 518 43,000  Level Vancouver Center
Fri 10:28:22 AM 54.3000 -137.0833 292° West 440 506 43,000  Level Vancouver Center
Fri 10:29:22 AM 54.3667 -137.2500 305° West 450 518 43,000  Level Vancouver Center
Fri 10:30:22 AM 54.4333 -137.4500 300° West 450 518 43,000  Level Vancouver Center
Fri 10:31:22 AM 54.4833 -137.6333 295° West 450 518 43,000  Level Vancouver Center
Fri 10:32:22 AM 54.5333 -137.8333 293° West 450 518 43,000  Level Vancouver Center
Fri 10:33:22 AM 54.6000 -138.0333 300° West 460 529 43,000  Level Vancouver Center
Fri 10:34:22 AM 54.6667 -138.2333 300° West 450 518 43,000  Level Vancouver Center
Fri 10:35:22 AM 54.7000 -138.4167 288° West 460 529 43,000  Level Vancouver Center
Fri 10:36:22 AM 54.7667 -138.6167 300° West 460 529 43,000  Level Vancouver Center
Fri 10:37:22 AM 54.8333 -138.8167 300° West 460 529 43,000  Level Vancouver Center
Fri 10:38:22 AM 54.8833 -139.0167 294° West 460 529 43,000  Level Vancouver Center
Fri 10:39:22 AM 54.9500 -139.2167 300° West 460 529 43,000  Level Vancouver Center
Fri 10:40:22 AM 55.0000 -139.4167 294° West 460 529 43,000  Level Vancouver Center
Fri 10:41:22 AM 55.0333 -139.5667 291° West 460 529 43,000  Level Vancouver Center
Fri 10:42:22 AM 55.1000 -139.7833 298° West 450 518 43,000  Level Vancouver Center
Fri 10:43:22 AM 55.1500 -139.9833 294° West 460 529 43,000  Level Vancouver Center
Fri 10:44:22 AM 55.2000 -140.1667 296° West 460 529 43,000  Level Vancouver Center
Fri 10:45:26 AM 55.2833 -140.3333 311° West 450 518 43,000  Level Anchorage Center
Fri 10:46:26 AM 55.3333 -140.5333 294° West 450 518 43,000  Level Anchorage Center
Fri 10:47:26 AM 55.3833 -140.7333 294° West 460 529 43,000  Level Anchorage Center
Fri 10:48:26 AM 55.4333 -140.9167 296° West 440 506 43,000  Level Anchorage Center
Fri 10:49:26 AM 55.4833 -141.1167 294° West 440 506 43,000  Level Anchorage Center
Fri 10:50:26 AM 55.5333 -141.3167 294° West 420 483 43,000 -13,813 Level Anchorage Center
Fri 10:51:45 AM 48.7500 -122.5833 113° Southeast 310 357 11,000  Descending Vancouver Center
Fri 10:54:27 AM 55.7333 -142.1000 308° West 440 506 43,000 8,649 Climbing Anchorage Center
Fri 10:55:27 AM 55.7833 -142.2667 298° West 420 483 43,000  Level Anchorage Center
Fri 10:56:27 AM 55.8333 -142.4667 294° West 420 483 43,000  Level Anchorage Center
Fri 10:57:27 AM 55.8667 -142.6667 287° West 430 495 43,000  Level Anchorage Center
Fri 10:58:27 AM 55.9167 -142.8667 294° West 430 495 43,000  Level Anchorage Center
Fri 10:59:27 AM 55.9833 -143.0833 299° West 430 495 43,000  Level Anchorage Center
Fri 11:00:27 AM 56.0333 -143.2833 294° West 420 483 43,000  Level Anchorage Center
Fri 11:01:27 AM 56.0667 -143.4833 287° West 430 495 43,000  Level Anchorage Center
Fri 11:02:28 AM 56.1167 -143.6833 294° West 440 506 43,000  Level Anchorage Center
Fri 11:03:28 AM 56.1667 -143.8833 294° West 440 506 43,000  Level Anchorage Center
Fri 11:04:28 AM 56.2000 -144.1000 286° West 440 506 43,000  Level Anchorage Center
Fri 11:05:28 AM 56.2500 -144.3000 294° West 430 495 43,000  Level Anchorage Center
Fri 11:06:28 AM 56.3000 -144.5000 294° West 440 506 43,000  Level Anchorage Center
Fri 11:07:28 AM 56.3667 -144.7000 301° West 440 506 43,000  Level Anchorage Center
Fri 11:08:28 AM 56.4167 -144.9000 294° West 450 518 43,000  Level Anchorage Center
Fri 11:09:28 AM 56.4500 -145.0667 290° West 430 495 43,000  Level Anchorage Center
Fri 11:10:28 AM 56.5000 -145.2500 296° West 430 495 43,000  Level Anchorage Center
Fri 11:11:28 AM 56.5500 -145.4500 294° West 430 495 43,000  Level Anchorage Center
Fri 11:12:29 AM 56.6000 -145.6500 294° West 420 483 43,000  Level Anchorage Center
Fri 11:13:29 AM 56.6500 -145.8500 295° West 420 483 43,000  Level Anchorage Center
Fri 11:14:28 AM 56.7000 -146.0333 296° West 420 483 43,000  Level Anchorage Center
Fri 11:15:29 AM 56.7500 -146.2333 295° West 420 483 43,000  Level Anchorage Center
Fri 11:16:29 AM 56.7833 -146.4333 287° West 410 472 43,000  Level Anchorage Center
Fri 11:17:29 AM 56.8333 -146.6167 297° West 420 483 43,000  Level Anchorage Center
Fri 11:18:29 AM 56.8833 -146.8167 295° West 420 483 43,000  Level Anchorage Center
Fri 11:19:29 AM 56.9333 -147.0167 295° West 410 472 43,000  Level Anchorage Center
Fri 11:20:29 AM 56.9667 -147.2167 287° West 410 472 43,000  Level Anchorage Center
Fri 11:21:29 AM 57.0167 -147.4000 297° West 410 472 43,000  Level Anchorage Center
Fri 11:22:29 AM 57.0667 -147.6000 295° West 410 472 43,000  Level Anchorage Center
Fri 11:23:29 AM 57.1000 -147.8000 287° West 400 460 43,000  Level Anchorage Center
Fri 11:24:29 AM 57.1500 -148.0000 295° West 410 472 43,000  Level Anchorage Center
Fri 11:25:29 AM 57.2000 -148.1833 297° West 400 460 43,000  Level Anchorage Center
Fri 11:26:29 AM 57.2333 -148.3833 287° West 410 472 43,000  Level Anchorage Center
Fri 11:27:29 AM 57.2833 -148.5833 295° West 410 472 43,000  Level Anchorage Center
Fri 11:28:30 AM 57.3167 -148.7833 287° West 410 472 43,000  Level Anchorage Center
Fri 11:29:29 AM 57.3667 -148.9833 295° West 410 472 43,000  Level Anchorage Center
Fri 11:30:30 AM 57.4000 -149.1667 289° West 400 460 43,000  Level Anchorage Center
Fri 11:31:30 AM 57.4500 -149.3667 295° West 400 460 43,000  Level Anchorage Center
Fri 11:32:30 AM 57.4833 -149.5667 287° West 410 472 43,000  Level Anchorage Center
Fri 11:33:30 AM 57.5333 -149.7667 295° West 400 460 43,000  Level Anchorage Center
Fri 11:34:30 AM 57.5667 -149.9500 289° West 390 449 43,000  Level Anchorage Center
Fri 11:35:30 AM 57.6000 -150.1500 287° West 400 460 43,000  Level Anchorage Center
Fri 11:36:30 AM 57.6500 -150.3500 295° West 400 460 43,000  Level Anchorage Center
Fri 11:37:31 AM 57.6833 -150.5333 289° West 380 437 43,000  Level Anchorage Center
Fri 11:38:31 AM 57.7167 -150.7333 287° West 400 460 43,000  Level Anchorage Center
Fri 11:39:31 AM 57.7667 -150.9333 295° West 390 449 43,000  Level Anchorage Center
Fri 11:40:31 AM 57.8000 -151.1167 289° West 380 437 43,000  Level Anchorage Center
Fri 11:41:31 AM 57.8333 -151.3167 287° West 390 449 43,000  Level Anchorage Center
Fri 11:42:31 AM 57.8667 -151.5000 289° West 380 437 43,000  Level Anchorage Center
Fri 11:43:31 AM 57.9000 -151.7000 287° West 390 449 43,000  Level Anchorage Center
Fri 11:44:31 AM 57.9333 -151.8833 289° West 390 449 43,000  Level Anchorage Center
Fri 11:45:31 AM 57.9667 -152.0833 288° West 390 449 43,000  Level Anchorage Center
Fri 11:46:31 AM 58.0000 -152.2833 288° West 390 449 43,000  Level Anchorage Center
Fri 11:47:32 AM 58.0333 -152.4667 289° West 390 449 43,000  Level Anchorage Center
Fri 11:48:32 AM 58.0833 -152.6667 295° West 390 449 43,000  Level Anchorage Center
Fri 11:49:31 AM 58.1167 -152.8667 288° West 390 449 43,000  Level Anchorage Center
Fri 11:50:32 AM 58.1500 -153.0500 289° West 390 449 43,000  Level Anchorage Center
Fri 11:51:32 AM 58.1833 -153.2500 288° West 390 449 43,000  Level Anchorage Center
Fri 11:52:32 AM 58.2167 -153.4500 288° West 390 449 43,000  Level Anchorage Center
Fri 11:53:32 AM 58.2500 -153.6500 288° West 400 460 43,000  Level Anchorage Center
Fri 11:54:32 AM 58.2833 -153.8500 288° West 400 460 43,000  Level Anchorage Center
Fri 11:55:32 AM 58.3167 -154.0500 288° West 390 449 43,000  Level Anchorage Center
Fri 11:56:32 AM 58.3500 -154.2500 288° West 390 449 43,000  Level Anchorage Center
Fri 11:57:32 AM 58.3667 -154.4500 279° West 390 449 43,000  Level Anchorage Center
Fri 11:58:32 AM 58.4000 -154.6333 289° West 380 437 43,000  Level Anchorage Center
Fri 11:59:32 AM 58.4333 -154.8333 288° West 370 426 43,000  Level Anchorage Center
Fri 12:00:32 PM 58.4667 -155.0167 289° West 380 437 43,000  Level Anchorage Center
Fri 12:01:33 PM 58.5000 -155.2167 288° West 370 426 43,000  Level Anchorage Center
Fri 12:02:33 PM 58.5167 -155.4167 279° West 380 437 43,000  Level Anchorage Center
Fri 12:03:33 PM 58.5500 -155.6167 288° West 390 449 43,000  Level Anchorage Center
Fri 12:04:33 PM 58.5833 -155.8167 288° West 380 437 43,000  Level Anchorage Center
Fri 12:05:33 PM 58.6167 -156.0000 289° West 370 426 43,000  Level Anchorage Center
Fri 12:06:33 PM 58.6500 -156.2000 288° West 370 426 43,000  Level Anchorage Center
Fri 12:07:33 PM 58.6667 -156.4167 279° West 360 414 43,000  Level Anchorage Center
Fri 12:08:33 PM 58.7000 -156.6167 288° West 380 437 43,000  Level Anchorage Center
Fri 12:09:34 PM 58.7167 -156.8000 280° West 350 403 43,000  Level Anchorage Center
Fri 12:10:34 PM 58.8000 -156.9500 317° Northwest 400 460 43,000  Level Anchorage Center
Fri 12:11:34 PM 58.9000 -156.9833 350° North 380 437 43,000  Level Anchorage Center
Fri 12:12:34 PM 58.9667 -156.8000 55° Northeast 470 541 43,000  Level Anchorage Center
Fri 12:13:34 PM 58.9167 -156.5500 111° Southeast 510 587 43,000  Level Anchorage Center
Fri 12:14:34 PM 58.8667 -156.3000 111° Southeast 500 575 43,000  Level Anchorage Center
Fri 12:15:34 PM 58.7667 -156.2167 157° South 480 552 43,000  Level Anchorage Center
Fri 12:16:34 PM 58.6667 -156.3500 215° Southwest 420 483 43,000  Level Anchorage Center
Fri 12:17:34 PM 58.7000 -156.5833 285° West 390 449 43,000  Level Anchorage Center
Fri 12:18:34 PM 58.7167 -156.7833 279° West 380 437 43,000  Level Anchorage Center
Fri 12:19:35 PM 58.8000 -156.9000 324° Northwest 390 449 43,000 -1,835 Level Anchorage Center
Fri 12:20:35 PM 58.9000 -156.8000 27° Northeast 440 506 39,300 -3,950 Descending Anchorage Center
Fri 12:21:35 PM 58.9167 -156.5167 83° East 550 633 35,100 -3,600 Descending Anchorage Center
Fri 12:23:35 PM 58.8333 -155.9833 107° East 490 564 28,500 -2,367 Descending Anchorage Center
Fri 12:24:35 PM 58.8000 -155.7333 104° East 480 552 28,000 -950 Descending Anchorage Center
Fri 12:25:35 PM 58.7333 -155.6000 134° Southeast 450 518 26,600 -2,767 Descending Anchorage Center
Fri 12:27:35 PM 58.5833 -155.7500 208° Southwest 320 368 19,700 -3,215 Descending Anchorage Center
Fri 12:28:36 PM 58.6000 -155.9000 282° West 290 334 16,900 -2,800 Descending Anchorage Center
Fri 12:29:35 PM 58.6167 -156.0500 282° West 280 322 14,100 -2,750 Descending Anchorage Center
Fri 12:30:36 PM 58.6333 -156.2000 282° West 260 299 11,400 -1,835 Descending Anchorage Center
Fri 12:31:36 PM 58.6500 -156.3167 285° West 240 276 10,400 -700 Descending Anchorage Center
Fri 12:32:36 PM 58.6667 -156.4333 285° West 220 253 10,000 -616 Descending Anchorage Center
Fri 12:35:00 PM 58.6667 -156.6333 276° West  Level FlightAware Approximate
Fri 12:40:12 PM 58.7167 -156.9167 276° West 210 242 5,100  Level Anchorage Center
Fri 12:41:12 PM 58.7667 -156.9333 350° North 230 265 5,000 -50 Descending Anchorage Center
Fri 12:42:00 PM 58.6765 -156.6487 276° West  Level Estimated
Fri 12:42:12 PM 58.7500 -156.8167 105° East 210 242 5,000  Level Anchorage Center
Fri 12:43:00 PM 58.6765 -156.6487 276° West  Level Estimated
Fri 12:44:00 PM 58.6765 -156.6487 276° West  Level Estimated
Fri 12:45:00 PM 58.6765 -156.6487 276° West  Level Estimated
Fri 12:45:00 PM 58.6765 -156.6487 79° East  Level Estimated
Fri 12:45:57 PM 58.7167 -156.9000 79° East 200 230 5,000  Level Anchorage Center
Fri 12:46:58 PM 58.7667 -156.9167 350° North 230 265 4,700 -496 Descending Anchorage Center
Fri 12:47:58 PM 58.7500 -156.8167 108° East 230 265 4,000 -150 Descending Anchorage Center
Fri 12:51:38 PM 58.7333 -156.9000 249° West 210 242 4,000 -21 Level Anchorage Center
Fri 12:52:38 PM 58.7667 -156.9000 360° North 180 207 3,900 -900 Descending Anchorage Center
Fri 12:53:38 PM 58.7500 -156.8167 111° Southeast 190 219 2,200 -1,700 Descending Anchorage Center

Login

Don't have an account? Register now (free) for customized features, flight alerts, and more!